CDT,Max TemperatureF,Mean TemperatureF,Min TemperatureF,Max Dew PointF,MeanDew PointF,Min DewpointF,Max Humidity, Mean Humidity, Min Humidity, Max Sea Level PressureIn, Mean Sea Level PressureIn, Min Sea Level PressureIn, Max VisibilityMiles, Mean VisibilityMiles, Min VisibilityMiles, Max Wind SpeedMPH, Mean Wind SpeedMPH, Max Gust SpeedMPH,PrecipitationIn, CloudCover, Events, WindDirDegrees
2013-8-1,78,66,54,66,56,48,100,74,34,30.00,29.98,29.96,10,7,0,14,3,24,0.00,2,Fog,324
2013-8-2,82,68,53,70,63,52,100,91,58,29.99,29.93,29.85,10,8,1,15,4,38,0.97,7,Rain-Thunderstorm,216
2013-8-3,74,65,55,68,59,49,100,78,43,30.12,30.05,29.96,10,7,0,17,3,29,0.00,3,Fog-Rain,4
2013-8-4,72,62,52,60,55,50,100,77,51,30.21,30.17,30.13,10,10,7,13,3,24,0.00,2,,3
2013-8-5,72,60,50,61,56,51,100,80,66,30.16,30.05,29.94,10,10,10,9,2,16,0.00,4,Rain,180
2013-8-6,78,70,62,68,65,60,100,88,69,29.95,29.92,29.89,10,8,4,9,4,16,0.15,6,Rain-Thunderstorm,188
2013-8-7,83,74,65,73,69,63,100,93,70,29.95,29.88,29.85,10,6,1,16,5,17,1.17,4,Rain-Thunderstorm,210
2013-8-8,75,68,62,64,61,57,100,79,60,30.03,29.99,29.96,10,10,7,14,7,21,0.00,3,,28
2013-8-9,78,67,57,65,60,54,100,74,47,30.05,30.02,29.99,10,10,10,10,4,,0.00,1,,320
2013-8-10,77,69,59,67,60,51,100,73,45,30.14,30.11,30.05,10,9,4,13,4,17,0.00,3,,15
2013-8-11,77,66,55,64,56,51,96,69,44,30.15,30.12,30.07,10,10,10,12,1,20,0.00,3,,290
2013-8-12,81,72,63,68,64,61,100,80,55,30.06,29.97,29.89,10,9,2,14,6,18,0.00,3,Rain-Thunderstorm,240
2013-8-13,66,59,52,66,53,47,100,75,54,30.15,30.06,29.93,10,10,2,18,10,26,0.00,2,,4
2013-8-14,67,56,45,50,47,43,97,71,49,30.23,30.19,30.15,10,10,10,13,5,23,0.00,1,,20
2013-8-15,72,58,44,57,51,45,100,77,48,30.21,30.17,30.13,10,10,2,7,1,,0.00,2,,237
2013-8-16,77,63,50,58,52,47,100,71,37,30.22,30.18,30.15,10,9,1,8,1,,0.00,2,,85
2013-8-17,77,64,50,61,54,49,97,73,38,30.26,30.22,30.19,10,10,10,12,2,,0.00,1,,105
2013-8-18,79,66,52,60,56,51,98,73,38,30.23,30.18,30.13,10,10,7,9,1,10,0.00,1,,54
2013-8-19,81,68,54,65,59,53,100,76,41,30.15,30.12,30.07,10,9,1,8,1,,0.00,1,,295
2013-8-20,83,70,56,66,62,57,100,78,47,30.17,30.12,30.09,10,7,0,9,2,,0.00,1,Fog,207
2013-8-21,86,72,59,68,64,60,100,75,41,30.14,30.09,30.01,10,8,0,10,3,,0.00,1,Fog-Thunderstorm,217
2013-8-22,73,68,63,70,67,64,100,93,77,30.15,30.09,30.00,10,8,1,16,7,24,1.04,4,Rain-Thunderstorm,278
2013-8-23,79,68,57,67,59,49,100,75,35,30.20,30.16,30.11,10,8,0,13,5,24,0.00,2,Fog,37
2013-8-24,80,66,52,61,55,50,100,72,36,30.31,30.26,30.20,10,10,10,8,2,,0.00,0,,129
2013-8-25,84,69,54,64,60,54,100,73,47,30.31,30.25,30.19,10,10,7,13,3,,0.00,0,,221
2013-8-26,86,73,60,71,66,59,93,77,57,30.21,30.13,30.05,10,10,7,14,6,18,0.00,0,,231
2013-8-27,90,80,70,74,70,66,97,74,48,30.05,29.97,29.87,10,9,5,15,7,22,0.00,1,,235
2013-8-28,77,72,67,72,69,64,100,86,62,30.05,29.96,29.88,10,7,1,15,8,18,0.00,6,,317
2013-8-29,85,72,60,72,65,59,100,82,41,30.11,30.06,30.01,10,6,0,14,1,17,0.00,2,Fog,51
2013-8-30,90,76,61,73,68,61,100,79,49,30.02,29.91,29.80,10,7,0,14,4,17,0.11,1,Fog-Rain-Thunderstorm,243
2013-8-31,75,70,66,73,69,66,100,96,77,29.89,29.85,29.80,10,8,3,9,5,,0.25,5,Rain-Thunderstorm,5